sensor_id;sensor_type;location;lat;lon;timestamp;P1;durP1;ratioP1;P2;durP2;ratioP2
44438;SDS011;30145;48.874;10.186;2023-05-16T00:00:36;11.57;;;8.50;;
44438;SDS011;30145;48.874;10.186;2023-05-16T00:03:03;12.20;;;8.63;;
44438;SDS011;30145;48.874;10.186;2023-05-16T00:05:31;9.67;;;8.10;;
44438;SDS011;30145;48.874;10.186;2023-05-16T00:07:58;9.20;;;7.70;;
44438;SDS011;30145;48.874;10.186;2023-05-16T00:10:25;8.97;;;7.40;;
44438;SDS011;30145;48.874;10.186;2023-05-16T00:12:52;10.57;;;8.40;;
44438;SDS011;30145;48.874;10.186;2023-05-16T00:15:19;9.67;;;8.67;;
44438;SDS011;30145;48.874;10.186;2023-05-16T00:17:46;8.40;;;7.30;;
44438;SDS011;30145;48.874;10.186;2023-05-16T00:20:13;9.03;;;7.63;;
44438;SDS011;30145;48.874;10.186;2023-05-16T00:22:42;10.27;;;8.37;;
44438;SDS011;30145;48.874;10.186;2023-05-16T00:25:09;8.30;;;7.27;;
44438;SDS011;30145;48.874;10.186;2023-05-16T00:27:36;10.57;;;8.77;;
44438;SDS011;30145;48.874;10.186;2023-05-16T00:30:03;10.80;;;8.80;;
44438;SDS011;30145;48.874;10.186;2023-05-16T00:32:32;11.33;;;9.27;;
44438;SDS011;30145;48.874;10.186;2023-05-16T00:34:59;11.67;;;9.17;;
44438;SDS011;30145;48.874;10.186;2023-05-16T00:37:26;11.27;;;9.17;;
44438;SDS011;30145;48.874;10.186;2023-05-16T00:39:53;11.07;;;9.13;;
44438;SDS011;30145;48.874;10.186;2023-05-16T00:42:20;11.10;;;8.90;;
44438;SDS011;30145;48.874;10.186;2023-05-16T00:44:47;11.87;;;9.20;;
44438;SDS011;30145;48.874;10.186;2023-05-16T00:47:14;9.83;;;8.57;;
44438;SDS011;30145;48.874;10.186;2023-05-16T00:49:41;13.50;;;9.43;;
44438;SDS011;30145;48.874;10.186;2023-05-16T00:52:08;11.13;;;8.67;;
44438;SDS011;30145;48.874;10.186;2023-05-16T00:54:36;10.63;;;7.77;;
44438;SDS011;30145;48.874;10.186;2023-05-16T00:57:03;10.43;;;8.93;;
44438;SDS011;30145;48.874;10.186;2023-05-16T00:59:32;11.13;;;8.77;;
44438;SDS011;30145;48.874;10.186;2023-05-16T01:01:59;9.63;;;8.53;;
44438;SDS011;30145;48.874;10.186;2023-05-16T01:04:26;11.50;;;8.47;;
44438;SDS011;30145;48.874;10.186;2023-05-16T01:06:54;10.00;;;8.53;;
44438;SDS011;30145;48.874;10.186;2023-05-16T01:09:22;9.40;;;8.43;;
44438;SDS011;30145;48.874;10.186;2023-05-16T01:17:21;10.40;;;8.07;;
44438;SDS011;30145;48.874;10.186;2023-05-16T01:28:08;10.43;;;8.67;;
44438;SDS011;30145;48.874;10.186;2023-05-16T01:30:37;10.27;;;8.50;;
44438;SDS011;30145;48.874;10.186;2023-05-16T01:33:05;11.87;;;9.30;;
44438;SDS011;30145;48.874;10.186;2023-05-16T01:35:32;13.33;;;9.87;;
44438;SDS011;30145;48.874;10.186;2023-05-16T01:41:19;11.80;;;9.10;;
44438;SDS011;30145;48.874;10.186;2023-05-16T01:43:48;11.73;;;9.63;;
44438;SDS011;30145;48.874;10.186;2023-05-16T01:46:20;11.77;;;9.83;;
44438;SDS011;30145;48.874;10.186;2023-05-16T01:48:52;11.27;;;9.47;;
44438;SDS011;30145;48.874;10.186;2023-05-16T01:51:20;11.23;;;9.60;;
44438;SDS011;30145;48.874;10.186;2023-05-16T01:53:48;12.13;;;9.93;;
44438;SDS011;30145;48.874;10.186;2023-05-16T01:56:15;11.47;;;9.20;;
44438;SDS011;30145;48.874;10.186;2023-05-16T01:58:42;12.70;;;10.23;;
44438;SDS011;30145;48.874;10.186;2023-05-16T02:01:09;10.33;;;8.80;;
44438;SDS011;30145;48.874;10.186;2023-05-16T02:03:39;11.20;;;9.73;;
44438;SDS011;30145;48.874;10.186;2023-05-16T02:06:06;13.83;;;11.17;;
44438;SDS011;30145;48.874;10.186;2023-05-16T02:08:33;11.87;;;10.20;;
44438;SDS011;30145;48.874;10.186;2023-05-16T02:11:00;12.73;;;10.80;;
44438;SDS011;30145;48.874;10.186;2023-05-16T02:13:27;13.33;;;9.80;;
44438;SDS011;30145;48.874;10.186;2023-05-16T02:15:54;11.97;;;9.60;;
44438;SDS011;30145;48.874;10.186;2023-05-16T02:18:21;15.53;;;10.63;;
44438;SDS011;30145;48.874;10.186;2023-05-16T02:20:49;12.17;;;9.90;;
44438;SDS011;30145;48.874;10.186;2023-05-16T02:23:16;16.40;;;10.97;;
44438;SDS011;30145;48.874;10.186;2023-05-16T02:25:43;11.10;;;9.37;;
44438;SDS011;30145;48.874;10.186;2023-05-16T02:28:10;12.57;;;10.60;;
44438;SDS011;30145;48.874;10.186;2023-05-16T02:30:37;12.73;;;10.20;;
44438;SDS011;30145;48.874;10.186;2023-05-16T02:33:04;12.07;;;10.20;;
44438;SDS011;30145;48.874;10.186;2023-05-16T02:35:31;12.33;;;9.27;;
44438;SDS011;30145;48.874;10.186;2023-05-16T02:37:58;14.27;;;11.57;;
44438;SDS011;30145;48.874;10.186;2023-05-16T02:40:25;15.37;;;12.03;;
44438;SDS011;30145;48.874;10.186;2023-05-16T02:42:52;18.43;;;12.33;;
44438;SDS011;30145;48.874;10.186;2023-05-16T02:45:19;16.50;;;12.17;;
44438;SDS011;30145;48.874;10.186;2023-05-16T02:47:46;15.57;;;12.17;;
44438;SDS011;30145;48.874;10.186;2023-05-16T02:50:13;15.53;;;12.27;;
44438;SDS011;30145;48.874;10.186;2023-05-16T02:52:40;15.53;;;11.40;;
44438;SDS011;30145;48.874;10.186;2023-05-16T02:55:07;15.63;;;12.73;;
44438;SDS011;30145;48.874;10.186;2023-05-16T02:57:46;15.13;;;12.37;;
44438;SDS011;30145;48.874;10.186;2023-05-16T03:00:13;17.70;;;13.70;;
44438;SDS011;30145;48.874;10.186;2023-05-16T03:02:42;14.70;;;12.63;;
44438;SDS011;30145;48.874;10.186;2023-05-16T03:05:09;15.13;;;12.00;;
44438;SDS011;30145;48.874;10.186;2023-05-16T03:07:36;16.13;;;13.20;;
44438;SDS011;30145;48.874;10.186;2023-05-16T03:10:04;15.10;;;13.33;;
44438;SDS011;30145;48.874;10.186;2023-05-16T03:12:31;17.63;;;13.93;;
44438;SDS011;30145;48.874;10.186;2023-05-16T03:14:58;16.03;;;12.73;;
44438;SDS011;30145;48.874;10.186;2023-05-16T03:17:25;14.80;;;11.87;;
44438;SDS011;30145;48.874;10.186;2023-05-16T03:19:52;15.57;;;12.53;;
44438;SDS011;30145;48.874;10.186;2023-05-16T03:22:19;16.23;;;12.00;;
44438;SDS011;30145;48.874;10.186;2023-05-16T03:24:46;16.83;;;13.10;;
44438;SDS011;30145;48.874;10.186;2023-05-16T03:27:13;14.90;;;12.80;;
44438;SDS011;30145;48.874;10.186;2023-05-16T03:29:40;17.00;;;13.07;;
44438;SDS011;30145;48.874;10.186;2023-05-16T03:32:07;17.17;;;11.87;;
44438;SDS011;30145;48.874;10.186;2023-05-16T03:34:35;16.97;;;13.73;;
44438;SDS011;30145;48.874;10.186;2023-05-16T03:37:02;20.27;;;14.77;;
44438;SDS011;30145;48.874;10.186;2023-05-16T03:39:29;17.73;;;13.87;;
44438;SDS011;30145;48.874;10.186;2023-05-16T03:41:56;17.67;;;15.03;;
44438;SDS011;30145;48.874;10.186;2023-05-16T03:44:23;20.73;;;14.43;;
44438;SDS011;30145;48.874;10.186;2023-05-16T03:46:50;21.13;;;13.73;;
44438;SDS011;30145;48.874;10.186;2023-05-16T03:49:19;15.43;;;12.90;;
44438;SDS011;30145;48.874;10.186;2023-05-16T03:51:49;19.33;;;14.70;;
44438;SDS011;30145;48.874;10.186;2023-05-16T03:54:15;17.53;;;13.60;;
44438;SDS011;30145;48.874;10.186;2023-05-16T03:56:42;17.07;;;13.33;;
44438;SDS011;30145;48.874;10.186;2023-05-16T03:59:09;15.27;;;12.70;;
44438;SDS011;30145;48.874;10.186;2023-05-16T04:01:36;15.07;;;13.00;;
44438;SDS011;30145;48.874;10.186;2023-05-16T04:04:03;16.53;;;12.20;;
44438;SDS011;30145;48.874;10.186;2023-05-16T04:06:31;18.77;;;14.30;;
44438;SDS011;30145;48.874;10.186;2023-05-16T04:08:58;15.43;;;12.87;;
44438;SDS011;30145;48.874;10.186;2023-05-16T04:11:25;18.20;;;13.67;;
44438;SDS011;30145;48.874;10.186;2023-05-16T04:13:52;18.93;;;13.63;;
44438;SDS011;30145;48.874;10.186;2023-05-16T04:16:19;14.90;;;12.60;;
44438;SDS011;30145;48.874;10.186;2023-05-16T04:18:46;16.43;;;13.23;;
44438;SDS011;30145;48.874;10.186;2023-05-16T04:21:13;18.03;;;12.67;;
44438;SDS011;30145;48.874;10.186;2023-05-16T04:23:43;15.23;;;12.37;;
44438;SDS011;30145;48.874;10.186;2023-05-16T04:26:10;16.07;;;13.33;;
44438;SDS011;30145;48.874;10.186;2023-05-16T04:28:37;15.43;;;12.30;;
44438;SDS011;30145;48.874;10.186;2023-05-16T04:31:04;14.20;;;10.97;;
44438;SDS011;30145;48.874;10.186;2023-05-16T04:33:31;15.90;;;11.67;;
44438;SDS011;30145;48.874;10.186;2023-05-16T04:35:58;15.70;;;13.07;;
44438;SDS011;30145;48.874;10.186;2023-05-16T04:38:25;15.30;;;12.63;;
44438;SDS011;30145;48.874;10.186;2023-05-16T04:40:52;16.43;;;12.20;;
44438;SDS011;30145;48.874;10.186;2023-05-16T04:43:19;16.63;;;12.10;;
44438;SDS011;30145;48.874;10.186;2023-05-16T04:45:46;17.17;;;12.40;;
44438;SDS011;30145;48.874;10.186;2023-05-16T04:48:14;13.27;;;10.87;;
44438;SDS011;30145;48.874;10.186;2023-05-16T04:50:41;15.50;;;12.53;;
44438;SDS011;30145;48.874;10.186;2023-05-16T04:53:07;17.77;;;11.67;;
44438;SDS011;30145;48.874;10.186;2023-05-16T04:55:35;15.30;;;11.70;;
44438;SDS011;30145;48.874;10.186;2023-05-16T04:58:02;15.30;;;12.93;;
44438;SDS011;30145;48.874;10.186;2023-05-16T05:00:29;17.47;;;14.23;;
44438;SDS011;30145;48.874;10.186;2023-05-16T05:02:56;18.23;;;14.13;;
44438;SDS011;30145;48.874;10.186;2023-05-16T05:05:23;17.20;;;13.50;;
44438;SDS011;30145;48.874;10.186;2023-05-16T05:07:50;17.40;;;13.43;;
44438;SDS011;30145;48.874;10.186;2023-05-16T05:10:18;19.87;;;14.17;;
44438;SDS011;30145;48.874;10.186;2023-05-16T05:12:45;16.13;;;13.97;;
44438;SDS011;30145;48.874;10.186;2023-05-16T05:15:12;17.57;;;13.80;;
44438;SDS011;30145;48.874;10.186;2023-05-16T05:17:39;15.83;;;13.53;;
44438;SDS011;30145;48.874;10.186;2023-05-16T05:20:06;16.53;;;13.23;;
44438;SDS011;30145;48.874;10.186;2023-05-16T05:22:34;18.43;;;14.33;;
44438;SDS011;30145;48.874;10.186;2023-05-16T05:25:01;15.10;;;12.57;;
44438;SDS011;30145;48.874;10.186;2023-05-16T05:27:28;16.93;;;14.03;;
44438;SDS011;30145;48.874;10.186;2023-05-16T05:29:55;19.03;;;14.57;;
44438;SDS011;30145;48.874;10.186;2023-05-16T05:32:22;17.53;;;13.07;;
44438;SDS011;30145;48.874;10.186;2023-05-16T05:34:49;15.13;;;12.90;;
44438;SDS011;30145;48.874;10.186;2023-05-16T05:37:16;17.53;;;13.50;;
44438;SDS011;30145;48.874;10.186;2023-05-16T05:39:43;16.13;;;13.47;;
44438;SDS011;30145;48.874;10.186;2023-05-16T05:42:10;17.97;;;13.77;;
44438;SDS011;30145;48.874;10.186;2023-05-16T05:44:37;15.03;;;12.93;;
44438;SDS011;30145;48.874;10.186;2023-05-16T05:47:05;17.57;;;14.33;;
44438;SDS011;30145;48.874;10.186;2023-05-16T05:49:32;16.33;;;14.13;;
44438;SDS011;30145;48.874;10.186;2023-05-16T05:52:00;15.23;;;13.17;;
44438;SDS011;30145;48.874;10.186;2023-05-16T05:54:27;17.27;;;13.43;;
44438;SDS011;30145;48.874;10.186;2023-05-16T05:56:55;15.07;;;13.07;;
44438;SDS011;30145;48.874;10.186;2023-05-16T05:59:23;16.97;;;14.00;;
44438;SDS011;30145;48.874;10.186;2023-05-16T06:01:50;18.53;;;14.10;;
44438;SDS011;30145;48.874;10.186;2023-05-16T06:04:20;15.07;;;13.10;;
44438;SDS011;30145;48.874;10.186;2023-05-16T06:06:47;15.47;;;13.53;;
44438;SDS011;30145;48.874;10.186;2023-05-16T06:09:14;17.77;;;13.53;;
44438;SDS011;30145;48.874;10.186;2023-05-16T06:11:41;16.67;;;14.03;;
44438;SDS011;30145;48.874;10.186;2023-05-16T06:14:10;16.97;;;12.87;;
44438;SDS011;30145;48.874;10.186;2023-05-16T06:16:37;19.13;;;13.87;;
44438;SDS011;30145;48.874;10.186;2023-05-16T06:19:05;17.90;;;13.90;;
44438;SDS011;30145;48.874;10.186;2023-05-16T06:21:33;16.43;;;13.23;;
44438;SDS011;30145;48.874;10.186;2023-05-16T06:24:00;15.87;;;13.97;;
44438;SDS011;30145;48.874;10.186;2023-05-16T06:26:27;15.70;;;13.07;;
44438;SDS011;30145;48.874;10.186;2023-05-16T06:28:54;16.33;;;13.13;;
44438;SDS011;30145;48.874;10.186;2023-05-16T06:31:21;16.10;;;13.73;;
44438;SDS011;30145;48.874;10.186;2023-05-16T06:33:48;18.37;;;14.77;;
44438;SDS011;30145;48.874;10.186;2023-05-16T06:36:15;19.00;;;14.60;;
44438;SDS011;30145;48.874;10.186;2023-05-16T06:38:42;16.77;;;14.97;;
44438;SDS011;30145;48.874;10.186;2023-05-16T06:41:09;16.07;;;13.73;;
44438;SDS011;30145;48.874;10.186;2023-05-16T06:43:35;14.90;;;13.00;;
44438;SDS011;30145;48.874;10.186;2023-05-16T06:46:03;15.50;;;13.50;;
44438;SDS011;30145;48.874;10.186;2023-05-16T06:48:30;16.40;;;13.90;;
44438;SDS011;30145;48.874;10.186;2023-05-16T06:50:57;20.63;;;14.83;;
44438;SDS011;30145;48.874;10.186;2023-05-16T06:53:24;17.07;;;13.10;;
44438;SDS011;30145;48.874;10.186;2023-05-16T06:55:51;15.97;;;13.50;;
44438;SDS011;30145;48.874;10.186;2023-05-16T06:58:18;17.10;;;13.43;;
44438;SDS011;30145;48.874;10.186;2023-05-16T07:00:45;17.77;;;14.13;;
44438;SDS011;30145;48.874;10.186;2023-05-16T07:03:14;15.70;;;13.73;;
44438;SDS011;30145;48.874;10.186;2023-05-16T07:05:41;17.43;;;14.57;;
44438;SDS011;30145;48.874;10.186;2023-05-16T07:08:08;16.67;;;13.73;;
44438;SDS011;30145;48.874;10.186;2023-05-16T07:10:40;16.07;;;13.47;;
44438;SDS011;30145;48.874;10.186;2023-05-16T07:13:07;16.27;;;14.10;;
44438;SDS011;30145;48.874;10.186;2023-05-16T07:15:34;18.57;;;14.40;;
44438;SDS011;30145;48.874;10.186;2023-05-16T07:18:01;17.43;;;14.60;;
44438;SDS011;30145;48.874;10.186;2023-05-16T07:20:28;17.30;;;14.23;;
44438;SDS011;30145;48.874;10.186;2023-05-16T07:22:55;18.03;;;14.10;;
44438;SDS011;30145;48.874;10.186;2023-05-16T07:25:23;15.70;;;13.00;;
44438;SDS011;30145;48.874;10.186;2023-05-16T07:27:51;16.77;;;14.27;;
44438;SDS011;30145;48.874;10.186;2023-05-16T07:30:18;16.27;;;13.67;;
44438;SDS011;30145;48.874;10.186;2023-05-16T07:32:46;16.20;;;14.37;;
44438;SDS011;30145;48.874;10.186;2023-05-16T07:35:14;16.00;;;14.00;;
44438;SDS011;30145;48.874;10.186;2023-05-16T07:37:41;16.33;;;14.53;;
44438;SDS011;30145;48.874;10.186;2023-05-16T07:40:09;16.70;;;14.17;;
44438;SDS011;30145;48.874;10.186;2023-05-16T07:42:36;15.67;;;12.80;;
44438;SDS011;30145;48.874;10.186;2023-05-16T07:45:04;17.10;;;14.03;;
44438;SDS011;30145;48.874;10.186;2023-05-16T07:47:32;16.13;;;13.30;;
44438;SDS011;30145;48.874;10.186;2023-05-16T07:49:59;15.60;;;13.83;;
44438;SDS011;30145;48.874;10.186;2023-05-16T07:52:27;15.40;;;13.63;;
44438;SDS011;30145;48.874;10.186;2023-05-16T07:54:54;17.00;;;13.40;;
44438;SDS011;30145;48.874;10.186;2023-05-16T07:57:21;17.30;;;13.50;;
44438;SDS011;30145;48.874;10.186;2023-05-16T07:59:50;16.33;;;13.40;;
44438;SDS011;30145;48.874;10.186;2023-05-16T08:02:17;15.90;;;14.20;;
44438;SDS011;30145;48.874;10.186;2023-05-16T08:04:44;16.07;;;13.47;;
44438;SDS011;30145;48.874;10.186;2023-05-16T08:07:12;18.23;;;14.10;;
44438;SDS011;30145;48.874;10.186;2023-05-16T08:09:39;15.47;;;13.63;;
44438;SDS011;30145;48.874;10.186;2023-05-16T08:12:06;15.00;;;12.80;;
44438;SDS011;30145;48.874;10.186;2023-05-16T08:14:34;16.13;;;14.13;;
44438;SDS011;30145;48.874;10.186;2023-05-16T08:17:02;16.30;;;14.60;;
44438;SDS011;30145;48.874;10.186;2023-05-16T08:19:29;17.07;;;13.80;;
44438;SDS011;30145;48.874;10.186;2023-05-16T08:21:58;14.63;;;12.67;;
44438;SDS011;30145;48.874;10.186;2023-05-16T08:24:25;15.37;;;13.27;;
44438;SDS011;30145;48.874;10.186;2023-05-16T08:26:52;15.80;;;14.10;;
44438;SDS011;30145;48.874;10.186;2023-05-16T08:29:19;14.97;;;13.37;;
44438;SDS011;30145;48.874;10.186;2023-05-16T08:31:46;17.93;;;13.77;;
44438;SDS011;30145;48.874;10.186;2023-05-16T08:34:13;15.53;;;13.77;;
44438;SDS011;30145;48.874;10.186;2023-05-16T08:36:41;16.10;;;13.23;;
44438;SDS011;30145;48.874;10.186;2023-05-16T08:39:08;14.80;;;13.10;;
44438;SDS011;30145;48.874;10.186;2023-05-16T08:41:38;16.20;;;13.30;;
44438;SDS011;30145;48.874;10.186;2023-05-16T08:44:05;16.23;;;12.77;;
44438;SDS011;30145;48.874;10.186;2023-05-16T08:46:32;15.37;;;13.33;;
44438;SDS011;30145;48.874;10.186;2023-05-16T08:49:02;15.87;;;13.23;;
44438;SDS011;30145;48.874;10.186;2023-05-16T08:51:33;15.23;;;12.73;;
44438;SDS011;30145;48.874;10.186;2023-05-16T08:54:09;15.40;;;12.40;;
44438;SDS011;30145;48.874;10.186;2023-05-16T08:56:40;15.73;;;13.60;;
44438;SDS011;30145;48.874;10.186;2023-05-16T08:59:07;15.30;;;13.00;;
44438;SDS011;30145;48.874;10.186;2023-05-16T09:01:35;14.33;;;12.80;;
44438;SDS011;30145;48.874;10.186;2023-05-16T09:04:04;17.57;;;12.67;;
44438;SDS011;30145;48.874;10.186;2023-05-16T09:06:33;14.70;;;13.10;;
44438;SDS011;30145;48.874;10.186;2023-05-16T09:09:00;14.03;;;11.73;;
44438;SDS011;30145;48.874;10.186;2023-05-16T09:11:28;15.03;;;13.13;;
44438;SDS011;30145;48.874;10.186;2023-05-16T09:13:55;14.03;;;12.37;;
44438;SDS011;30145;48.874;10.186;2023-05-16T09:16:22;14.73;;;12.53;;
44438;SDS011;30145;48.874;10.186;2023-05-16T09:18:53;14.23;;;12.23;;
44438;SDS011;30145;48.874;10.186;2023-05-16T09:21:25;13.80;;;11.90;;
44438;SDS011;30145;48.874;10.186;2023-05-16T09:23:55;12.87;;;11.53;;
44438;SDS011;30145;48.874;10.186;2023-05-16T09:26:22;13.00;;;11.57;;
44438;SDS011;30145;48.874;10.186;2023-05-16T09:28:52;13.83;;;12.20;;
44438;SDS011;30145;48.874;10.186;2023-05-16T09:31:24;13.43;;;11.43;;
44438;SDS011;30145;48.874;10.186;2023-05-16T09:33:52;13.77;;;11.73;;
44438;SDS011;30145;48.874;10.186;2023-05-16T09:36:21;13.30;;;11.43;;
44438;SDS011;30145;48.874;10.186;2023-05-16T09:38:50;12.47;;;10.17;;
44438;SDS011;30145;48.874;10.186;2023-05-16T09:41:17;13.90;;;11.83;;
44438;SDS011;30145;48.874;10.186;2023-05-16T09:43:44;14.60;;;11.83;;
44438;SDS011;30145;48.874;10.186;2023-05-16T09:46:12;12.00;;;10.70;;
44438;SDS011;30145;48.874;10.186;2023-05-16T09:48:46;16.07;;;14.37;;
44438;SDS011;30145;48.874;10.186;2023-05-16T09:51:13;14.97;;;12.27;;
44438;SDS011;30145;48.874;10.186;2023-05-16T09:53:40;14.47;;;12.47;;
44438;SDS011;30145;48.874;10.186;2023-05-16T09:56:12;16.43;;;11.37;;
44438;SDS011;30145;48.874;10.186;2023-05-16T09:58:40;13.37;;;11.70;;
44438;SDS011;30145;48.874;10.186;2023-05-16T10:01:09;12.67;;;10.90;;
44438;SDS011;30145;48.874;10.186;2023-05-16T10:03:37;13.57;;;11.73;;
44438;SDS011;30145;48.874;10.186;2023-05-16T10:06:06;11.50;;;10.13;;
44438;SDS011;30145;48.874;10.186;2023-05-16T10:08:34;15.70;;;11.50;;
44438;SDS011;30145;48.874;10.186;2023-05-16T10:11:02;11.97;;;10.67;;
44438;SDS011;30145;48.874;10.186;2023-05-16T10:13:34;12.97;;;10.40;;
44438;SDS011;30145;48.874;10.186;2023-05-16T10:16:05;12.70;;;11.27;;
44438;SDS011;30145;48.874;10.186;2023-05-16T10:18:34;12.77;;;10.77;;
44438;SDS011;30145;48.874;10.186;2023-05-16T10:21:05;14.17;;;11.10;;
44438;SDS011;30145;48.874;10.186;2023-05-16T10:23:36;12.23;;;10.93;;
44438;SDS011;30145;48.874;10.186;2023-05-16T10:26:04;12.23;;;10.93;;
44438;SDS011;30145;48.874;10.186;2023-05-16T10:28:32;15.50;;;11.63;;
44438;SDS011;30145;48.874;10.186;2023-05-16T10:30:59;13.53;;;11.53;;
44438;SDS011;30145;48.874;10.186;2023-05-16T10:33:28;16.60;;;11.90;;
44438;SDS011;30145;48.874;10.186;2023-05-16T10:35:55;14.50;;;11.53;;
44438;SDS011;30145;48.874;10.186;2023-05-16T10:38:22;13.53;;;11.80;;
44438;SDS011;30145;48.874;10.186;2023-05-16T10:40:50;13.53;;;11.10;;
44438;SDS011;30145;48.874;10.186;2023-05-16T10:43:26;13.13;;;10.73;;
44438;SDS011;30145;48.874;10.186;2023-05-16T10:45:56;13.47;;;11.07;;
44438;SDS011;30145;48.874;10.186;2023-05-16T10:48:35;11.90;;;10.50;;
44438;SDS011;30145;48.874;10.186;2023-05-16T10:54:08;10.93;;;9.80;;
44438;SDS011;30145;48.874;10.186;2023-05-16T10:56:36;11.47;;;10.27;;
44438;SDS011;30145;48.874;10.186;2023-05-16T10:59:04;11.67;;;9.67;;
44438;SDS011;30145;48.874;10.186;2023-05-16T11:01:52;11.87;;;10.30;;
44438;SDS011;30145;48.874;10.186;2023-05-16T11:04:20;11.90;;;9.47;;
44438;SDS011;30145;48.874;10.186;2023-05-16T11:06:51;13.70;;;9.87;;
44438;SDS011;30145;48.874;10.186;2023-05-16T11:09:20;12.23;;;8.63;;
44438;SDS011;30145;48.874;10.186;2023-05-16T11:17:14;10.07;;;9.07;;
44438;SDS011;30145;48.874;10.186;2023-05-16T11:22:12;11.83;;;9.93;;
44438;SDS011;30145;48.874;10.186;2023-05-16T11:27:21;11.63;;;8.40;;
44438;SDS011;30145;48.874;10.186;2023-05-16T11:29:49;8.00;;;7.23;;
44438;SDS011;30145;48.874;10.186;2023-05-16T11:32:21;9.47;;;7.67;;
44438;SDS011;30145;48.874;10.186;2023-05-16T11:34:51;11.10;;;8.20;;
44438;SDS011;30145;48.874;10.186;2023-05-16T11:37:20;8.63;;;7.77;;
44438;SDS011;30145;48.874;10.186;2023-05-16T11:39:47;10.30;;;8.20;;
44438;SDS011;30145;48.874;10.186;2023-05-16T11:42:14;9.00;;;8.07;;
44438;SDS011;30145;48.874;10.186;2023-05-16T11:44:42;9.90;;;8.90;;
44438;SDS011;30145;48.874;10.186;2023-05-16T11:47:09;12.10;;;8.57;;
44438;SDS011;30145;48.874;10.186;2023-05-16T11:49:36;9.00;;;7.47;;
44438;SDS011;30145;48.874;10.186;2023-05-16T11:52:03;9.73;;;8.73;;
44438;SDS011;30145;48.874;10.186;2023-05-16T11:54:31;8.70;;;7.77;;
44438;SDS011;30145;48.874;10.186;2023-05-16T11:57:00;8.10;;;7.27;;
44438;SDS011;30145;48.874;10.186;2023-05-16T11:59:27;9.77;;;6.73;;
44438;SDS011;30145;48.874;10.186;2023-05-16T12:01:54;7.83;;;7.03;;
44438;SDS011;30145;48.874;10.186;2023-05-16T12:04:21;6.20;;;5.60;;
44438;SDS011;30145;48.874;10.186;2023-05-16T12:06:56;8.77;;;6.37;;
44438;SDS011;30145;48.874;10.186;2023-05-16T12:09:26;7.07;;;6.27;;
44438;SDS011;30145;48.874;10.186;2023-05-16T12:11:53;6.23;;;5.63;;
44438;SDS011;30145;48.874;10.186;2023-05-16T12:14:20;8.40;;;6.13;;
44438;SDS011;30145;48.874;10.186;2023-05-16T12:16:48;7.03;;;6.30;;
44438;SDS011;30145;48.874;10.186;2023-05-16T12:19:16;8.20;;;6.90;;
44438;SDS011;30145;48.874;10.186;2023-05-16T12:21:43;6.70;;;6.03;;
44438;SDS011;30145;48.874;10.186;2023-05-16T12:24:10;7.30;;;6.50;;
44438;SDS011;30145;48.874;10.186;2023-05-16T12:26:41;8.33;;;7.10;;
44438;SDS011;30145;48.874;10.186;2023-05-16T12:29:10;10.03;;;7.93;;
44438;SDS011;30145;48.874;10.186;2023-05-16T12:31:37;9.77;;;7.63;;
44438;SDS011;30145;48.874;10.186;2023-05-16T12:34:18;9.50;;;7.33;;
44438;SDS011;30145;48.874;10.186;2023-05-16T12:36:49;7.30;;;6.60;;
44438;SDS011;30145;48.874;10.186;2023-05-16T12:39:18;9.13;;;7.50;;
44438;SDS011;30145;48.874;10.186;2023-05-16T12:41:45;9.07;;;7.20;;
44438;SDS011;30145;48.874;10.186;2023-05-16T12:44:13;7.97;;;7.17;;
44438;SDS011;30145;48.874;10.186;2023-05-16T12:46:43;8.13;;;7.27;;
44438;SDS011;30145;48.874;10.186;2023-05-16T12:49:11;9.30;;;7.87;;
44438;SDS011;30145;48.874;10.186;2023-05-16T12:51:39;11.57;;;8.30;;
44438;SDS011;30145;48.874;10.186;2023-05-16T12:54:10;10.50;;;7.93;;
44438;SDS011;30145;48.874;10.186;2023-05-16T12:56:38;10.23;;;7.70;;
44438;SDS011;30145;48.874;10.186;2023-05-16T12:59:09;9.43;;;8.10;;
44438;SDS011;30145;48.874;10.186;2023-05-16T13:01:37;11.00;;;8.50;;
44438;SDS011;30145;48.874;10.186;2023-05-16T13:04:06;13.83;;;8.87;;
44438;SDS011;30145;48.874;10.186;2023-05-16T13:06:33;11.97;;;8.33;;
44438;SDS011;30145;48.874;10.186;2023-05-16T13:09:10;8.20;;;7.40;;
44438;SDS011;30145;48.874;10.186;2023-05-16T13:11:38;9.37;;;7.80;;
44438;SDS011;30145;48.874;10.186;2023-05-16T13:14:05;11.33;;;7.97;;
44438;SDS011;30145;48.874;10.186;2023-05-16T13:16:32;11.30;;;8.03;;
44438;SDS011;30145;48.874;10.186;2023-05-16T13:18:59;9.97;;;8.00;;
44438;SDS011;30145;48.874;10.186;2023-05-16T13:21:28;10.57;;;8.13;;
44438;SDS011;30145;48.874;10.186;2023-05-16T13:23:57;10.27;;;8.33;;
44438;SDS011;30145;48.874;10.186;2023-05-16T13:26:24;8.53;;;7.53;;
44438;SDS011;30145;48.874;10.186;2023-05-16T13:28:52;10.10;;;7.30;;
44438;SDS011;30145;48.874;10.186;2023-05-16T13:31:20;11.00;;;7.43;;
44438;SDS011;30145;48.874;10.186;2023-05-16T13:33:50;11.43;;;7.60;;
44438;SDS011;30145;48.874;10.186;2023-05-16T13:36:17;9.53;;;8.23;;
44438;SDS011;30145;48.874;10.186;2023-05-16T13:38:53;9.50;;;7.93;;
44438;SDS011;30145;48.874;10.186;2023-05-16T13:41:53;13.03;;;7.90;;
44438;SDS011;30145;48.874;10.186;2023-05-16T13:44:20;8.57;;;7.23;;
44438;SDS011;30145;48.874;10.186;2023-05-16T13:46:47;7.87;;;6.87;;
44438;SDS011;30145;48.874;10.186;2023-05-16T13:49:14;8.23;;;6.73;;
44438;SDS011;30145;48.874;10.186;2023-05-16T13:51:42;9.53;;;7.27;;
44438;SDS011;30145;48.874;10.186;2023-05-16T13:54:09;7.73;;;6.33;;
44438;SDS011;30145;48.874;10.186;2023-05-16T13:56:36;8.63;;;6.53;;
44438;SDS011;30145;48.874;10.186;2023-05-16T13:59:03;7.20;;;6.23;;
44438;SDS011;30145;48.874;10.186;2023-05-16T14:01:32;7.40;;;5.80;;
44438;SDS011;30145;48.874;10.186;2023-05-16T14:03:59;9.40;;;5.77;;
44438;SDS011;30145;48.874;10.186;2023-05-16T14:06:26;6.77;;;5.60;;
44438;SDS011;30145;48.874;10.186;2023-05-16T14:08:54;6.03;;;5.03;;
44438;SDS011;30145;48.874;10.186;2023-05-16T14:11:21;7.60;;;5.87;;
44438;SDS011;30145;48.874;10.186;2023-05-16T14:13:53;8.67;;;5.43;;
44438;SDS011;30145;48.874;10.186;2023-05-16T14:16:20;7.43;;;5.03;;
44438;SDS011;30145;48.874;10.186;2023-05-16T14:18:47;7.83;;;5.53;;
44438;SDS011;30145;48.874;10.186;2023-05-16T14:21:14;6.07;;;4.80;;
44438;SDS011;30145;48.874;10.186;2023-05-16T14:23:41;6.27;;;4.90;;
44438;SDS011;30145;48.874;10.186;2023-05-16T14:26:08;6.40;;;4.60;;
44438;SDS011;30145;48.874;10.186;2023-05-16T14:28:35;7.17;;;4.60;;
44438;SDS011;30145;48.874;10.186;2023-05-16T14:31:02;4.97;;;4.43;;
44438;SDS011;30145;48.874;10.186;2023-05-16T14:33:29;5.40;;;4.40;;
44438;SDS011;30145;48.874;10.186;2023-05-16T14:35:58;5.13;;;4.57;;
44438;SDS011;30145;48.874;10.186;2023-05-16T14:38:25;6.47;;;4.30;;
44438;SDS011;30145;48.874;10.186;2023-05-16T14:40:53;4.97;;;3.67;;
44438;SDS011;30145;48.874;10.186;2023-05-16T14:43:20;5.57;;;4.43;;
44438;SDS011;30145;48.874;10.186;2023-05-16T14:45:47;5.00;;;4.07;;
44438;SDS011;30145;48.874;10.186;2023-05-16T14:48:14;6.13;;;4.10;;
44438;SDS011;30145;48.874;10.186;2023-05-16T14:50:42;5.07;;;4.40;;